createdAt,value
2018-12-29T00:02:13.100Z,11.93
2018-12-29T00:04:53.719Z,13.33
2018-12-29T00:07:35.259Z,11.30
2018-12-29T00:10:16.937Z,11.80
2018-12-29T00:12:58.615Z,11.30
2018-12-29T00:15:40.035Z,10.90
2018-12-29T00:18:21.350Z,11.87
2018-12-29T00:21:02.048Z,11.20
2018-12-29T00:23:43.584Z,10.80
2018-12-29T00:26:25.027Z,11.37
2018-12-29T00:29:06.447Z,10.87
2018-12-29T00:31:47.398Z,11.77
2018-12-29T00:34:28.403Z,11.70
2018-12-29T00:37:09.838Z,10.40
2018-12-29T00:39:50.541Z,11.10
2018-12-29T00:42:31.258Z,11.97
2018-12-29T00:45:12.037Z,11.20
2018-12-29T00:47:53.486Z,12.27
2018-12-29T00:50:34.256Z,11.37
2018-12-29T00:53:15.100Z,10.70
2018-12-29T00:55:56.390Z,11.43
2018-12-29T00:58:38.003Z,12.33
2018-12-29T01:01:18.667Z,10.67
2018-12-29T01:03:59.314Z,12.03
2018-12-29T01:06:40.010Z,11.30
2018-12-29T01:09:21.447Z,11.60
2018-12-29T01:12:02.125Z,12.57
2018-12-29T01:14:43.030Z,11.60
2018-12-29T01:17:23.854Z,11.53
2018-12-29T01:20:05.349Z,11.10
2018-12-29T01:22:46.590Z,12.57
2018-12-29T01:25:28.020Z,11.67
2018-12-29T01:28:08.737Z,11.57
2018-12-29T01:30:49.449Z,11.50
2018-12-29T01:33:30.546Z,11.87
2018-12-29T01:36:11.365Z,11.43
2018-12-29T01:38:52.669Z,11.73
2018-12-29T01:41:34.192Z,12.55
2018-12-29T01:44:15.047Z,12.90
2018-12-29T01:46:56.506Z,13.00
2018-12-29T01:49:37.236Z,12.95
2018-12-29T01:52:18.682Z,12.17
2018-12-29T01:54:59.409Z,13.53
2018-12-29T01:57:40.969Z,15.33
2018-12-29T02:00:22.364Z,14.40
2018-12-29T02:03:03.224Z,14.83
2018-12-29T02:05:43.970Z,14.30
2018-12-29T02:08:25.482Z,15.80
2018-12-29T02:11:06.271Z,14.13
2018-12-29T02:13:47.735Z,16.03
2018-12-29T02:16:28.561Z,16.55
2018-12-29T02:19:09.489Z,17.57
2018-12-29T02:21:50.602Z,16.82
2018-12-29T02:24:31.405Z,16.10
2018-12-29T02:27:12.354Z,18.10
2018-12-29T02:29:53.761Z,16.80
2018-12-29T02:32:35.385Z,16.57
2018-12-29T02:35:16.215Z,18.15
2018-12-29T02:37:57.784Z,17.98
2018-12-29T02:40:39.245Z,18.02
2018-12-29T02:43:20.737Z,16.77
2018-12-29T02:46:02.028Z,14.90
2018-12-29T02:48:42.816Z,15.63
2018-12-29T02:51:24.315Z,15.85
2018-12-29T02:54:05.053Z,16.80
2018-12-29T02:56:45.812Z,15.53
2018-12-29T02:59:27.311Z,15.13
2018-12-29T03:02:08.978Z,16.23
2018-12-29T03:04:49.800Z,15.00
2018-12-29T03:07:30.489Z,15.07
2018-12-29T03:10:11.748Z,14.43
2018-12-29T03:12:53.195Z,15.00
2018-12-29T03:15:40.892Z,15.83
2018-12-29T03:18:16.486Z,16.00
2018-12-29T03:20:57.957Z,14.03
2018-12-29T03:23:39.507Z,16.23
2018-12-29T03:26:20.192Z,15.23
2018-12-29T03:29:01.026Z,16.60
2018-12-29T03:31:41.795Z,15.03
2018-12-29T03:34:22.470Z,15.58
2018-12-29T03:37:03.993Z,16.50
2018-12-29T03:39:45.600Z,16.20
2018-12-29T03:42:26.309Z,15.28
2018-12-29T03:45:07.921Z,15.85
2018-12-29T03:47:48.706Z,16.13
2018-12-29T03:50:30.213Z,15.20
2018-12-29T03:53:11.788Z,14.90
2018-12-29T03:55:53.301Z,15.32
2018-12-29T03:58:34.046Z,17.77
2018-12-29T04:01:15.376Z,15.63
2018-12-29T04:03:56.877Z,15.50
2018-12-29T04:06:37.604Z,12.88
2018-12-29T04:09:19.165Z,15.65
2018-12-29T04:11:59.797Z,14.07
2018-12-29T04:14:41.461Z,15.05
2018-12-29T04:17:22.330Z,15.38
2018-12-29T04:20:03.035Z,14.58
2018-12-29T04:22:43.759Z,16.37
2018-12-29T04:25:25.754Z,16.45
2018-12-29T04:28:07.052Z,16.67
2018-12-29T04:30:48.687Z,15.83
2018-12-29T04:33:29.629Z,16.20
2018-12-29T04:36:10.269Z,14.95
2018-12-29T04:38:51.902Z,16.15
2018-12-29T04:41:33.518Z,15.63
2018-12-29T04:44:14.736Z,17.30
2018-12-29T04:46:55.707Z,15.40
2018-12-29T04:49:36.368Z,14.68
2018-12-29T04:52:17.806Z,14.10
2018-12-29T04:54:59.161Z,13.15
2018-12-29T04:57:40.114Z,14.07
2018-12-29T05:00:20.847Z,13.48
2018-12-29T05:03:02.411Z,13.75
2018-12-29T05:05:43.821Z,13.35
2018-12-29T05:08:24.613Z,13.47
2018-12-29T05:11:05.286Z,13.90
2018-12-29T05:13:46.730Z,14.17
2018-12-29T05:16:28.138Z,14.40
2018-12-29T05:19:08.878Z,13.33
2018-12-29T05:21:49.670Z,13.45
2018-12-29T05:24:31.037Z,12.73
2018-12-29T05:27:12.515Z,13.90
2018-12-29T05:29:53.320Z,13.32
2018-12-29T05:32:34.997Z,14.10
2018-12-29T05:35:16.606Z,13.77
2018-12-29T05:37:58.054Z,13.07
2018-12-29T05:40:39.557Z,15.18
2018-12-29T05:43:20.465Z,13.70
2018-12-29T05:46:01.857Z,15.15
2018-12-29T05:48:42.604Z,16.17
2018-12-29T05:51:23.249Z,16.62
2018-12-29T05:54:04.212Z,14.65
2018-12-29T05:56:45.619Z,15.05
2018-12-29T05:59:27.077Z,12.20
2018-12-29T06:02:07.815Z,16.75
2018-12-29T06:04:49.248Z,15.32
2018-12-29T06:07:29.938Z,17.80
2018-12-29T06:10:11.313Z,15.63
2018-12-29T06:12:52.735Z,16.23
2018-12-29T06:15:34.392Z,18.47
2018-12-29T06:18:15.106Z,15.77
2018-12-29T06:20:56.712Z,15.95
2018-12-29T06:23:38.301Z,16.67
2018-12-29T06:26:19.823Z,17.35
2018-12-29T06:29:01.409Z,17.27
2018-12-29T06:31:42.154Z,16.05
2018-12-29T06:34:22.902Z,16.25
2018-12-29T06:37:03.670Z,17.57
2018-12-29T06:39:45.301Z,16.50
2018-12-29T06:42:26.746Z,15.25
2018-12-29T06:45:08.297Z,16.67
2018-12-29T06:47:49.157Z,16.00
2018-12-29T06:50:30.623Z,17.80
2018-12-29T06:53:12.136Z,16.35
2018-12-29T06:55:53.463Z,16.17
2018-12-29T06:58:35.061Z,17.50
2018-12-29T07:01:16.344Z,16.12
2018-12-29T07:03:57.866Z,18.65
2018-12-29T07:06:39.201Z,15.43
2018-12-29T07:09:20.669Z,17.05
2018-12-29T07:12:01.469Z,17.25
2018-12-29T07:14:42.842Z,17.30
2018-12-29T07:17:23.763Z,16.77
2018-12-29T07:20:05.350Z,16.65
2018-12-29T07:22:46.728Z,17.10
2018-12-29T07:25:27.612Z,15.68
2018-12-29T07:28:09.293Z,16.40
2018-12-29T07:30:50.770Z,17.77
2018-12-29T07:33:31.593Z,17.32
2018-12-29T07:36:12.274Z,17.20
2018-12-29T07:38:52.991Z,17.80
2018-12-29T07:41:34.460Z,18.40
2018-12-29T07:44:15.198Z,18.17
2018-12-29T07:46:56.440Z,17.47
2018-12-29T07:49:37.993Z,18.92
2018-12-29T07:52:19.354Z,17.65
2018-12-29T07:55:00.244Z,17.35
2018-12-29T07:57:40.935Z,19.92
2018-12-29T08:00:21.883Z,17.00
2018-12-29T08:03:03.344Z,19.32
2018-12-29T08:05:44.081Z,19.98
2018-12-29T08:08:25.642Z,18.67
2018-12-29T08:11:06.312Z,20.05
2018-12-29T08:13:46.955Z,18.80
2018-12-29T08:16:28.526Z,11.75
2018-12-29T08:19:09.790Z,21.97
2018-12-29T08:21:50.494Z,22.55
2018-12-29T08:24:32.086Z,21.15
2018-12-29T08:27:13.106Z,20.70
2018-12-29T08:29:53.860Z,21.07
2018-12-29T08:32:34.753Z,19.65
2018-12-29T08:35:16.118Z,21.20
2018-12-29T08:37:56.821Z,20.27
2018-12-29T08:40:38.338Z,21.25
2018-12-29T08:43:19.926Z,21.02
2018-12-29T08:46:01.504Z,18.00
2018-12-29T08:48:42.411Z,19.42
2018-12-29T08:51:23.626Z,20.10
2018-12-29T08:54:05.171Z,18.27
2018-12-29T08:56:46.084Z,21.77
2018-12-29T08:59:26.982Z,19.07
2018-12-29T09:02:08.686Z,18.92
2018-12-29T09:04:50.038Z,19.30
2018-12-29T09:07:30.934Z,19.85
2018-12-29T09:10:11.772Z,18.70
2018-12-29T09:12:52.977Z,19.50
2018-12-29T09:15:34.354Z,19.48
2018-12-29T09:18:15.946Z,6.42
2018-12-29T09:20:56.633Z,17.02
2018-12-29T09:23:38.205Z,16.70
2018-12-29T09:26:18.941Z,16.60
2018-12-29T09:28:59.640Z,17.85
2018-12-29T09:31:40.291Z,15.93
2018-12-29T09:34:22.547Z,14.90
2018-12-29T09:37:03.654Z,15.28
2018-12-29T09:39:45.215Z,15.45
2018-12-29T09:42:26.742Z,16.75
2018-12-29T09:45:07.597Z,17.10
2018-12-29T09:47:49.205Z,16.02
2018-12-29T09:50:30.857Z,16.62
2018-12-29T09:53:11.553Z,15.80
2018-12-29T09:55:52.862Z,15.93
2018-12-29T09:58:34.426Z,12.95
2018-12-29T10:01:15.951Z,15.15
2018-12-29T10:03:56.722Z,14.93
2018-12-29T10:06:37.713Z,13.70
2018-12-29T10:12:38.704Z,15.13
2018-12-29T10:15:20.198Z,14.85
2018-12-29T10:18:00.829Z,12.95
2018-12-29T10:20:42.270Z,12.37
2018-12-29T10:23:23.137Z,13.15
2018-12-29T10:26:04.018Z,13.07
2018-12-29T10:28:45.644Z,11.45
2018-12-29T10:31:26.794Z,12.53
2018-12-29T10:34:07.433Z,13.08
2018-12-29T10:36:49.018Z,10.90
2018-12-29T10:39:30.301Z,11.28
2018-12-29T10:42:11.745Z,14.25
2018-12-29T10:44:52.488Z,15.32
2018-12-29T10:47:34.641Z,13.62
2018-12-29T10:50:15.897Z,13.43
2018-12-29T10:52:57.451Z,12.30
2018-12-29T10:55:38.069Z,15.03
2018-12-29T10:58:18.912Z,13.38
2018-12-29T11:01:00.324Z,14.37
2018-12-29T11:03:41.197Z,14.40
2018-12-29T11:06:21.926Z,14.40
2018-12-29T11:09:04.772Z,13.97
2018-12-29T11:11:46.029Z,14.77
2018-12-29T11:14:27.490Z,13.38
2018-12-29T11:17:08.557Z,15.95
2018-12-29T11:19:49.410Z,13.25
2018-12-29T11:22:30.228Z,12.90
2018-12-29T11:25:11.665Z,12.98
2018-12-29T11:27:52.850Z,12.15
2018-12-29T11:30:34.417Z,13.28
2018-12-29T11:33:15.303Z,12.67
2018-12-29T11:35:56.752Z,14.25
2018-12-29T11:38:37.741Z,10.33
2018-12-29T11:41:18.691Z,13.00
2018-12-29T11:44:00.266Z,15.35
2018-12-29T11:46:40.906Z,12.77
2018-12-29T11:49:21.615Z,13.60
2018-12-29T11:52:02.405Z,12.60
2018-12-29T11:54:43.852Z,12.68
2018-12-29T11:57:25.274Z,14.47
2018-12-29T12:00:08.321Z,11.68
2018-12-29T12:02:49.414Z,12.82
2018-12-29T12:05:30.877Z,14.15
2018-12-29T12:08:11.900Z,13.00
2018-12-29T12:10:52.765Z,13.43
2018-12-29T12:13:34.252Z,11.13
2018-12-29T12:16:15.112Z,13.00
2018-12-29T12:18:56.723Z,12.95
2018-12-29T12:21:37.514Z,11.10
2018-12-29T12:27:12.489Z,13.13
2018-12-29T12:29:54.159Z,13.80
2018-12-29T12:32:35.110Z,13.78
2018-12-29T12:35:16.625Z,12.70
2018-12-29T12:37:57.285Z,13.27
2018-12-29T12:40:38.969Z,12.13
2018-12-29T12:43:20.581Z,14.57
2018-12-29T12:46:02.315Z,14.20
2018-12-29T12:48:43.766Z,15.32
2018-12-29T12:51:25.247Z,14.40
2018-12-29T12:54:06.846Z,14.78
2018-12-29T12:56:48.361Z,14.57
2018-12-29T12:59:30.250Z,14.18
2018-12-29T13:02:11.769Z,16.37
2018-12-29T13:04:53.286Z,16.43
2018-12-29T13:07:34.926Z,15.53
2018-12-29T13:10:16.380Z,17.07
2018-12-29T13:12:57.753Z,15.30
2018-12-29T13:15:38.427Z,13.87
2018-12-29T13:18:19.780Z,14.40
2018-12-29T13:21:02.936Z,14.77
2018-12-29T13:23:43.754Z,16.15
2018-12-29T13:26:24.490Z,14.60
2018-12-29T13:29:06.045Z,15.73
2018-12-29T13:31:47.522Z,13.43
2018-12-29T13:34:28.158Z,15.07
2018-12-29T13:37:09.048Z,16.10
2018-12-29T13:39:50.726Z,15.07
2018-12-29T13:42:31.542Z,15.83
2018-12-29T13:45:12.246Z,14.70
2018-12-29T13:47:52.881Z,15.75
2018-12-29T13:50:34.334Z,14.63
2018-12-29T13:53:15.842Z,15.97
2018-12-29T13:55:57.326Z,14.90
2018-12-29T13:58:38.178Z,15.43
2018-12-29T14:01:19.788Z,14.95
2018-12-29T14:04:00.408Z,14.17
2018-12-29T14:06:41.513Z,15.27
2018-12-29T14:09:22.490Z,11.90
2018-12-29T14:12:03.265Z,15.13
2018-12-29T14:14:43.955Z,15.30
2018-12-29T14:17:24.773Z,14.93
2018-12-29T14:20:06.278Z,14.73
2018-12-29T14:22:47.986Z,14.53
2018-12-29T14:25:28.577Z,13.50
2018-12-29T14:28:10.267Z,13.50
2018-12-29T14:30:50.912Z,14.27
2018-12-29T14:33:32.472Z,15.10
2018-12-29T14:36:13.145Z,14.30
2018-12-29T14:38:54.738Z,14.10
2018-12-29T14:41:36.218Z,14.17
2018-12-29T14:44:16.907Z,14.80
2018-12-29T14:46:57.724Z,12.00
2018-12-29T14:49:39.315Z,15.13
2018-12-29T14:52:20.727Z,15.93
2018-12-29T14:55:01.403Z,16.73
2018-12-29T14:57:42.816Z,16.13
2018-12-29T15:00:24.399Z,15.77
2018-12-29T15:03:05.891Z,14.50
2018-12-29T15:05:47.249Z,14.07
2018-12-29T15:08:28.001Z,17.50
2018-12-29T15:11:08.662Z,14.97
2018-12-29T15:13:49.686Z,14.10
2018-12-29T15:16:31.309Z,14.63
2018-12-29T15:19:12.016Z,14.73
2018-12-29T15:21:52.734Z,14.90
2018-12-29T15:24:33.569Z,14.10
2018-12-29T15:27:14.600Z,14.07
2018-12-29T15:29:56.130Z,14.75
2018-12-29T15:32:36.999Z,15.40
2018-12-29T15:35:18.062Z,16.67
2018-12-29T15:37:59.059Z,15.10
2018-12-29T15:40:40.596Z,14.93
2018-12-29T15:43:21.586Z,14.90
2018-12-29T15:46:02.201Z,15.23
2018-12-29T15:48:50.926Z,14.40
2018-12-29T15:51:26.541Z,14.53
2018-12-29T15:54:08.013Z,14.93
2018-12-29T15:56:49.366Z,14.03
2018-12-29T15:59:30.390Z,13.77
2018-12-29T16:02:11.157Z,21.17
2018-12-29T16:04:52.618Z,20.27
2018-12-29T16:07:33.305Z,15.77
2018-12-29T16:10:14.050Z,15.28
2018-12-29T16:12:54.827Z,14.47
2018-12-29T16:15:36.653Z,18.60
2018-12-29T16:18:18.394Z,18.70
2018-12-29T16:20:59.601Z,18.10
2018-12-29T16:23:40.326Z,19.77
2018-12-29T16:26:21.921Z,15.47
2018-12-29T16:29:02.748Z,16.07
2018-12-29T16:31:43.319Z,16.77
2018-12-29T16:34:24.847Z,15.00
2018-12-29T16:37:06.409Z,14.65
2018-12-29T16:39:47.993Z,14.37
2018-12-29T16:42:29.060Z,14.38
2018-12-29T16:45:09.909Z,14.87
2018-12-29T16:47:51.356Z,17.00
2018-12-29T16:50:32.118Z,15.50
2018-12-29T16:53:13.587Z,21.10
2018-12-29T16:55:54.421Z,16.60
2018-12-29T16:58:35.387Z,17.27
2018-12-29T17:01:16.857Z,16.80
2018-12-29T17:03:58.173Z,22.73
2018-12-29T17:06:39.664Z,19.73
2018-12-29T17:09:20.327Z,17.37
2018-12-29T17:12:01.762Z,18.67
2018-12-29T17:14:42.618Z,17.27
2018-12-29T17:17:23.487Z,22.35
2018-12-29T17:20:05.047Z,27.17
2018-12-29T17:22:46.553Z,22.10
2018-12-29T17:25:28.263Z,19.80
2018-12-29T17:28:08.976Z,15.65
2018-12-29T17:30:49.667Z,35.73
2018-12-29T17:33:31.325Z,21.52
2018-12-29T17:36:12.714Z,16.63
2018-12-29T17:38:54.210Z,17.70
2018-12-29T17:41:35.674Z,14.83
2018-12-29T17:44:16.895Z,16.30
2018-12-29T17:46:57.546Z,15.87
2018-12-29T17:49:38.434Z,15.78
2018-12-29T17:52:19.230Z,16.23
2018-12-29T17:55:00.466Z,15.38
2018-12-29T17:57:41.847Z,15.47
2018-12-29T18:00:23.193Z,16.42
2018-12-29T18:03:04.730Z,17.13
2018-12-29T18:05:45.454Z,16.90
2018-12-29T18:08:26.847Z,15.85
2018-12-29T18:11:07.731Z,17.83
2018-12-29T18:13:49.307Z,17.27
2018-12-29T18:16:30.810Z,16.70
2018-12-29T18:19:12.321Z,15.78
2018-12-29T18:21:54.545Z,15.40
2018-12-29T18:24:36.139Z,17.77
2018-12-29T18:27:18.265Z,16.48
2018-12-29T18:30:00.156Z,15.37
2018-12-29T18:32:41.506Z,15.73
2018-12-29T18:35:22.767Z,14.87
2018-12-29T18:38:03.893Z,14.45
2018-12-29T18:40:45.017Z,14.90
2018-12-29T18:43:26.585Z,15.63
2018-12-29T18:46:08.026Z,14.95
2018-12-29T18:48:49.354Z,16.82
2018-12-29T18:51:30.844Z,16.10
2018-12-29T18:54:12.373Z,15.60
2018-12-29T18:56:54.023Z,16.00
2018-12-29T18:59:35.503Z,17.23
2018-12-29T19:02:16.317Z,17.35
2018-12-29T19:04:57.622Z,16.65
2018-12-29T19:07:39.490Z,18.65
2018-12-29T19:10:20.977Z,16.30
2018-12-29T19:13:02.506Z,17.00
2018-12-29T19:15:44.036Z,16.47
2018-12-29T19:18:24.822Z,16.50
2018-12-29T19:21:06.362Z,17.27
2018-12-29T19:23:48.369Z,16.40
2018-12-29T19:26:29.678Z,17.17
2018-12-29T19:29:11.205Z,16.93
2018-12-29T19:31:52.580Z,17.57
2018-12-29T19:34:33.600Z,17.15
2018-12-29T19:37:15.292Z,16.42
2018-12-29T19:39:57.040Z,17.17
2018-12-29T19:42:37.717Z,17.62
2018-12-29T19:45:18.675Z,16.45
2018-12-29T19:48:00.208Z,17.00
2018-12-29T19:50:41.668Z,16.77
2018-12-29T19:53:24.254Z,19.02
2018-12-29T19:56:05.093Z,27.73
2018-12-29T19:58:46.733Z,17.00
2018-12-29T20:01:27.853Z,14.20
2018-12-29T20:04:09.619Z,17.73
2018-12-29T20:06:51.250Z,17.17
2018-12-29T20:09:32.803Z,19.75
2018-12-29T20:12:14.072Z,18.17
2018-12-29T20:14:55.041Z,20.92
2018-12-29T20:17:36.237Z,16.12
2018-12-29T20:20:17.438Z,18.23
2018-12-29T20:22:59.026Z,17.98
2018-12-29T20:25:40.496Z,19.20
2018-12-29T20:28:21.898Z,18.55
2018-12-29T20:31:02.910Z,17.70
2018-12-29T20:33:44.245Z,18.20
2018-12-29T20:36:26.309Z,18.85
2018-12-29T20:39:07.485Z,18.45
2018-12-29T20:41:49.537Z,19.95
2018-12-29T20:44:31.072Z,17.73
2018-12-29T20:47:12.870Z,20.03
2018-12-29T20:49:53.672Z,18.70
2018-12-29T20:52:35.220Z,18.82
2018-12-29T20:55:16.055Z,19.85
2018-12-29T20:57:57.529Z,16.93
2018-12-29T21:00:38.308Z,18.10
2018-12-29T21:03:19.814Z,19.75
2018-12-29T21:06:01.447Z,18.90
2018-12-29T21:08:42.870Z,18.02
2018-12-29T21:11:24.224Z,18.57
2018-12-29T21:14:05.563Z,13.98
2018-12-29T21:16:47.186Z,19.30
2018-12-29T21:19:27.859Z,19.77
2018-12-29T21:22:08.585Z,19.95
2018-12-29T21:24:50.014Z,18.07
2018-12-29T21:27:30.936Z,18.95
2018-12-29T21:30:11.753Z,17.23
2018-12-29T21:32:52.561Z,20.05
2018-12-29T21:35:33.247Z,18.77
2018-12-29T21:38:13.962Z,19.23
2018-12-29T21:40:54.635Z,18.00
2018-12-29T21:43:35.565Z,20.90
2018-12-29T21:46:16.993Z,19.30
2018-12-29T21:48:58.700Z,19.30
2018-12-29T21:51:40.267Z,17.75
2018-12-29T21:54:21.713Z,11.55
2018-12-29T21:57:02.457Z,17.07
2018-12-29T21:59:44.008Z,20.17
2018-12-29T22:02:24.829Z,18.77
2018-12-29T22:05:06.284Z,19.12
2018-12-29T22:07:47.702Z,16.80
2018-12-29T22:10:28.457Z,15.83
2018-12-29T22:13:10.037Z,17.20
2018-12-29T22:15:51.490Z,10.78
2018-12-29T22:18:32.406Z,18.40
2018-12-29T22:21:13.028Z,19.15
2018-12-29T22:23:54.470Z,14.83
2018-12-29T22:26:36.046Z,20.50
2018-12-29T22:29:17.690Z,18.92
2018-12-29T22:31:58.337Z,16.47
2018-12-29T22:34:39.071Z,19.23
2018-12-29T22:37:20.434Z,17.23
2018-12-29T22:40:01.192Z,21.05
2018-12-29T22:42:42.597Z,19.32
2018-12-29T22:45:24.485Z,20.95
2018-12-29T22:48:05.198Z,17.07
2018-12-29T22:50:45.853Z,18.90
2018-12-29T22:53:27.119Z,19.60
2018-12-29T22:56:08.555Z,20.77
2018-12-29T22:58:49.852Z,20.60
2018-12-29T23:01:31.406Z,19.20
2018-12-29T23:04:12.209Z,18.60
2018-12-29T23:06:53.034Z,19.40
2018-12-29T23:09:34.541Z,21.37
2018-12-29T23:12:15.265Z,20.00
2018-12-29T23:14:56.187Z,17.20
2018-12-29T23:17:36.960Z,18.60
2018-12-29T23:20:17.727Z,8.43
2018-12-29T23:22:59.303Z,19.27
2018-12-29T23:25:40.038Z,20.10
2018-12-29T23:28:20.655Z,19.95
2018-12-29T23:31:02.246Z,18.32
2018-12-29T23:33:43.694Z,14.20
2018-12-29T23:36:25.333Z,18.65
2018-12-29T23:39:06.233Z,17.98
2018-12-29T23:41:46.912Z,20.40
2018-12-29T23:44:28.361Z,15.70
2018-12-29T23:47:09.803Z,18.87
2018-12-29T23:49:51.123Z,10.00
2018-12-29T23:52:32.465Z,16.87
2018-12-29T23:55:14.014Z,18.12
2018-12-29T23:57:54.864Z,17.55
